FW0866 Fitchburg MA US current weather conditions

sailwx.info

Dewpoint 17.0° C

Last reported at 2020-Jul-14 06:45 UTC.
Time now 2020-Jul-14 07:25 UTC

Location: N 42°34' W 071°52'.
View on Google Maps.

See reports from other nearby stations

  
Tides and Currents Weather Stations Pressure Air Temp Water Temp Dewpoint Dewpoint Depression Visibility Wind Speed Wind Dir Waves Ship Positions
date/time (UTC)wind fromknots sea level pressurealtimeterstation pressurevisibilityair tempwater tempwave heightnotes
2020-Jul-14 06:45
2020-Jul-14 06:30
2020-Jul-14 06:15
2020-Jul-14 05:45
2020-Jul-14 05:30
2020-Jul-14 05:15 344 0 18.3
2020-Jul-14 04:45 275 18.3
2020-Jul-14 04:30 338 1 18.9
2020-Jul-14 04:15 058 18.9
2020-Jul-14 03:45 297 2 gusting 6 18.9
2020-Jul-14 03:30 298 1 gusting 4 18.9
2020-Jul-14 03:15 266 18.9
2020-Jul-14 02:47 276 19.4
2020-Jul-14 02:31 300 1 gusting 3 19.4
2020-Jul-14 02:16 341 0 gusting 4 20.0
2020-Jul-14 01:46 352 20.6
2020-Jul-14 01:31 321 20.6
2020-Jul-14 01:17 343 20.6
2020-Jul-14 00:46 268 1 gusting 4 20.6
2020-Jul-14 00:32 082 21.1
2020-Jul-14 00:16 269 21.7
2020-Jul-13 23:52 151 23.3
2020-Jul-13 23:31 086 0 gusting 5 23.9
2020-Jul-13 23:16 103 1 gusting 6 24.4
2020-Jul-13 22:46 282 26.1
2020-Jul-13 22:32 349 26.7
2020-Jul-13 22:16 283 1 gusting 4 27.8
2020-Jul-13 21:47 286 2 gusting 5 27.8
2020-Jul-13 21:31 245 4 gusting 6 27.8
2020-Jul-13 21:16 250 4 gusting 7 27.8
2020-Jul-13 20:45 282 4 gusting 9 27.8
2020-Jul-13 20:15 247 4 gusting 10 27.8
2020-Jul-13 19:46 265 5 gusting 11 27.8
2020-Jul-13 19:31 302 2 gusting 10 27.8
2020-Jul-13 19:16 305 3 gusting 11 27.8
2020-Jul-13 18:45 313 5 gusting 12 27.2
2020-Jul-13 18:31 240 4 gusting 11 27.8
2020-Jul-13 18:15 297 3 gusting 12 27.8
2020-Jul-13 17:45 246 4 gusting 13 27.8
2020-Jul-13 17:30 233 2 gusting 9 27.8
2020-Jul-13 17:15 244 6 gusting 12 27.2
2020-Jul-13 16:46 264 4 gusting 9 27.2
2020-Jul-13 16:30 259 3 gusting 7 26.7
2020-Jul-13 16:15 253 4 gusting 9 27.2
2020-Jul-13 15:45 237 2 gusting 4 27.2
2020-Jul-13 15:30 220 1 gusting 4 26.7
2020-Jul-13 15:15 193 2 gusting 5 26.1
2020-Jul-13 14:45 265 25.0
2020-Jul-13 14:30 248 0 gusting 3 24.4
2020-Jul-13 14:16 229 1 gusting 5 24.4
2020-Jul-13 13:46 306 23.3
2020-Jul-13 13:31 231 22.8
2020-Jul-13 13:16 254 0 gusting 3 22.8
2020-Jul-13 12:46 281 2 gusting 4 22.2
2020-Jul-13 12:31 274 2 gusting 4 21.7
2020-Jul-13 12:16 262 1 gusting 2 21.7
2020-Jul-13 11:46 255 1 gusting 4 21.1
2020-Jul-13 11:31 300 0 gusting 3 20.6
2020-Jul-13 11:16 258 20.6
2020-Jul-13 10:45 279 0 gusting 3 20.6
2020-Jul-13 10:31 289 0 gusting 2 20.6
2020-Jul-13 10:16 315 0 gusting 5 20.6
2020-Jul-13 09:46 295 0 gusting 2 20.6
2020-Jul-13 09:31 304 1 gusting 3 20.6
2020-Jul-13 09:15 276 0 gusting 2 20.6
2020-Jul-13 08:46 226 20.6
2020-Jul-13 08:31 252 0 gusting 6 20.6
2020-Jul-13 08:16 245 2 gusting 5 21.1
2020-Jul-13 07:46 302 20.6
2020-Jul-13 07:30 295 20.0
2020-Jul-13 07:15 250 20.6
2020-Jul-13 06:46 257 21.1
2020-Jul-13 06:30 252 21.7
2020-Jul-13 06:16 275 21.7
2020-Jul-13 05:46 312 0 gusting 1 21.7
2020-Jul-13 05:30 252 21.7
2020-Jul-13 05:15 298 22.2
2020-Jul-13 04:46 310 0 gusting 4 22.8
2020-Jul-13 04:30 274 22.8
2020-Jul-13 04:15 321 22.8
2020-Jul-13 03:45 282 0 gusting 3 22.8
2020-Jul-13 03:30 265 22.8
2020-Jul-13 03:15 287 2 gusting 6 22.8
2020-Jul-13 02:45 277 2 gusting 5 22.8
2020-Jul-13 02:30 266 1 gusting 8 22.8
2020-Jul-13 02:15 243 6 gusting 12 22.8
2020-Jul-13 01:45 269 1 gusting 5 23.3
2020-Jul-13 01:30 257 0 gusting 4 23.3
2020-Jul-13 01:15 265 23.3
2020-Jul-13 00:45 268 24.4
2020-Jul-13 00:31 293 24.4
2020-Jul-13 00:17 233 2 gusting 5 25.0
2020-Jul-12 23:48 239 2 gusting 5 26.7
2020-Jul-12 23:31 231 2 gusting 5 27.2
2020-Jul-12 23:16 245 2 gusting 5 27.8
2020-Jul-12 22:46 297 2 gusting 8 27.8
2020-Jul-12 22:31 297 5 gusting 7 27.8
2020-Jul-12 22:16 282 3 gusting 8 28.3
2020-Jul-12 21:47 238 4 gusting 13 27.8
2020-Jul-12 21:32 271 4 gusting 13 28.3
2020-Jul-12 21:16 316 5 gusting 14 28.3
2020-Jul-12 20:46 260 6 gusting 11 28.3
2020-Jul-12 20:31 245 5 gusting 13 27.8
2020-Jul-12 20:17 276 4 gusting 13 27.8
2020-Jul-12 19:31 242 6 gusting 17 27.8
2020-Jul-12 19:18 294 7 gusting 16 27.8
2020-Jul-12 18:45 288 8 gusting 15 27.8
2020-Jul-12 18:31 271 8 gusting 17 27.2
2020-Jul-12 18:16 278 7 gusting 19 27.2
2020-Jul-12 17:46 279 4 gusting 16 27.2
2020-Jul-12 17:31 269 6 gusting 16 26.7
2020-Jul-12 17:15 240 9 gusting 15 26.7
2020-Jul-12 16:46 281 10 gusting 17 26.1
2020-Jul-12 16:31 247 11 gusting 18 25.6
2020-Jul-12 16:15 257 6 gusting 18 26.1
2020-Jul-12 15:45 271 7 gusting 18 25.0
2020-Jul-12 15:30 266 6 gusting 16 25.0
2020-Jul-12 15:15 262 8 gusting 19 25.0
2020-Jul-12 14:46 267 9 gusting 17 24.4
2020-Jul-12 14:30 237 6 gusting 16 24.4
2020-Jul-12 14:15 300 6 gusting 13 24.4
2020-Jul-12 13:45 256 7 23.3
2020-Jul-12 13:30 271 8 gusting 18 23.9
2020-Jul-12 13:15 252 6 gusting 11 23.3
2020-Jul-12 12:45 265 6 gusting 13 23.3
2020-Jul-12 12:31 246 7 gusting 14 22.8
2020-Jul-12 12:16 281 8 gusting 15 22.8
2020-Jul-12 12:01 252 6 gusting 13 22.2
2020-Jul-12 11:47 255 4 gusting 15 22.2
2020-Jul-12 11:32 319 3 gusting 11 22.2
2020-Jul-12 11:16 265 6 gusting 15 21.7
2020-Jul-12 11:01 217 6 gusting 13 21.7
2020-Jul-12 10:46 216 5 gusting 14 21.7
2020-Jul-12 10:31 225 8 gusting 15 21.7
2020-Jul-12 10:16 241 4 gusting 13 21.7
2020-Jul-12 10:03 237 6 gusting 13 21.1
2020-Jul-12 09:47 259 7 gusting 14 21.1
2020-Jul-12 09:31 263 3 gusting 10 21.1
2020-Jul-12 09:16 301 4 gusting 12 21.7
2020-Jul-12 09:02 229 5 gusting 12 21.7
2020-Jul-12 08:46 229 6 gusting 11 21.7
2020-Jul-12 08:33 261 5 gusting 11 21.7
2020-Jul-12 08:16 243 6 gusting 19 21.7
2020-Jul-12 08:01 242 6 gusting 13 22.2
2020-Jul-12 07:46 309 6 gusting 16 22.2
2020-Jul-12 07:31 264 6 gusting 13 22.2
2020-Jul-12 07:17 245 5 gusting 12 22.2
2020-Jul-12 07:00 160 4 gusting 10 21.7